sensor_id;sensor_type;location;lat;lon;timestamp;P1;durP1;ratioP1;P2;durP2;ratioP2
58928;SDS011;44713;53.378;10.022;2023-04-03T00:00:37;4.57;;;1.40;;
58928;SDS011;44713;53.378;10.022;2023-04-03T00:03:02;5.68;;;1.80;;
58928;SDS011;44713;53.378;10.022;2023-04-03T00:05:27;5.45;;;1.88;;
58928;SDS011;44713;53.378;10.022;2023-04-03T00:07:53;4.47;;;1.40;;
58928;SDS011;44713;53.378;10.022;2023-04-03T00:10:19;5.43;;;1.60;;
58928;SDS011;44713;53.378;10.022;2023-04-03T00:12:44;5.40;;;1.88;;
58928;SDS011;44713;53.378;10.022;2023-04-03T00:15:10;5.20;;;1.45;;
58928;SDS011;44713;53.378;10.022;2023-04-03T00:17:36;8.88;;;2.00;;
58928;SDS011;44713;53.378;10.022;2023-04-03T00:20:02;4.85;;;1.73;;
58928;SDS011;44713;53.378;10.022;2023-04-03T00:22:28;8.75;;;2.00;;
58928;SDS011;44713;53.378;10.022;2023-04-03T00:24:54;8.77;;;1.75;;
58928;SDS011;44713;53.378;10.022;2023-04-03T00:27:19;4.63;;;1.63;;
58928;SDS011;44713;53.378;10.022;2023-04-03T00:29:45;9.40;;;1.63;;
58928;SDS011;44713;53.378;10.022;2023-04-03T00:32:10;5.25;;;2.15;;
58928;SDS011;44713;53.378;10.022;2023-04-03T00:34:36;7.80;;;1.92;;
58928;SDS011;44713;53.378;10.022;2023-04-03T00:37:01;4.30;;;1.70;;
58928;SDS011;44713;53.378;10.022;2023-04-03T00:39:26;9.40;;;2.40;;
58928;SDS011;44713;53.378;10.022;2023-04-03T00:41:52;6.25;;;1.95;;
58928;SDS011;44713;53.378;10.022;2023-04-03T00:46:58;6.22;;;2.22;;
58928;SDS011;44713;53.378;10.022;2023-04-03T00:49:24;5.40;;;1.73;;
58928;SDS011;44713;53.378;10.022;2023-04-03T00:51:51;4.70;;;1.40;;
58928;SDS011;44713;53.378;10.022;2023-04-03T00:54:17;7.38;;;2.40;;
58928;SDS011;44713;53.378;10.022;2023-04-03T00:56:42;9.13;;;1.98;;
58928;SDS011;44713;53.378;10.022;2023-04-03T00:59:15;6.20;;;1.90;;
58928;SDS011;44713;53.378;10.022;2023-04-03T01:01:48;6.10;;;1.65;;
58928;SDS011;44713;53.378;10.022;2023-04-03T01:07:01;9.73;;;2.15;;
58928;SDS011;44713;53.378;10.022;2023-04-03T01:09:30;7.75;;;1.85;;
58928;SDS011;44713;53.378;10.022;2023-04-03T01:14:48;6.45;;;2.08;;
58928;SDS011;44713;53.378;10.022;2023-04-03T01:17:33;8.52;;;2.38;;
58928;SDS011;44713;53.378;10.022;2023-04-03T01:22:59;6.90;;;1.70;;
58928;SDS011;44713;53.378;10.022;2023-04-03T01:25:52;6.72;;;1.88;;
58928;SDS011;44713;53.378;10.022;2023-04-03T01:28:26;5.28;;;1.70;;
58928;SDS011;44713;53.378;10.022;2023-04-03T01:36:17;7.72;;;2.80;;
58928;SDS011;44713;53.378;10.022;2023-04-03T01:38:45;9.88;;;2.42;;
58928;SDS011;44713;53.378;10.022;2023-04-03T01:41:11;4.13;;;1.70;;
58928;SDS011;44713;53.378;10.022;2023-04-03T01:43:37;4.38;;;1.30;;
58928;SDS011;44713;53.378;10.022;2023-04-03T01:46:02;6.55;;;1.70;;
58928;SDS011;44713;53.378;10.022;2023-04-03T01:48:27;5.75;;;1.42;;
58928;SDS011;44713;53.378;10.022;2023-04-03T01:50:53;6.00;;;1.80;;
58928;SDS011;44713;53.378;10.022;2023-04-03T01:53:19;5.60;;;1.75;;
58928;SDS011;44713;53.378;10.022;2023-04-03T01:55:45;5.07;;;1.65;;
58928;SDS011;44713;53.378;10.022;2023-04-03T01:58:10;10.40;;;2.30;;
58928;SDS011;44713;53.378;10.022;2023-04-03T02:00:36;7.35;;;1.88;;
58928;SDS011;44713;53.378;10.022;2023-04-03T02:03:02;8.10;;;2.38;;
58928;SDS011;44713;53.378;10.022;2023-04-03T02:05:27;4.88;;;2.00;;
58928;SDS011;44713;53.378;10.022;2023-04-03T02:07:53;6.47;;;2.15;;
58928;SDS011;44713;53.378;10.022;2023-04-03T02:10:18;7.18;;;1.70;;
58928;SDS011;44713;53.378;10.022;2023-04-03T02:12:44;6.55;;;1.90;;
58928;SDS011;44713;53.378;10.022;2023-04-03T02:15:10;7.00;;;2.20;;
58928;SDS011;44713;53.378;10.022;2023-04-03T02:17:35;7.28;;;1.70;;
58928;SDS011;44713;53.378;10.022;2023-04-03T02:20:01;9.13;;;2.00;;
58928;SDS011;44713;53.378;10.022;2023-04-03T02:22:28;8.27;;;1.98;;
58928;SDS011;44713;53.378;10.022;2023-04-03T02:24:53;7.40;;;2.35;;
58928;SDS011;44713;53.378;10.022;2023-04-03T02:27:19;6.20;;;1.73;;
58928;SDS011;44713;53.378;10.022;2023-04-03T02:29:45;10.23;;;1.85;;
58928;SDS011;44713;53.378;10.022;2023-04-03T02:32:10;8.00;;;2.00;;
58928;SDS011;44713;53.378;10.022;2023-04-03T02:34:36;5.28;;;1.50;;
58928;SDS011;44713;53.378;10.022;2023-04-03T02:37:03;7.28;;;2.38;;
58928;SDS011;44713;53.378;10.022;2023-04-03T02:39:28;5.32;;;1.83;;
58928;SDS011;44713;53.378;10.022;2023-04-03T02:41:55;5.70;;;2.15;;
58928;SDS011;44713;53.378;10.022;2023-04-03T02:44:23;7.60;;;2.65;;
58928;SDS011;44713;53.378;10.022;2023-04-03T02:46:49;5.90;;;2.15;;
58928;SDS011;44713;53.378;10.022;2023-04-03T02:49:15;6.65;;;1.85;;
58928;SDS011;44713;53.378;10.022;2023-04-03T02:51:41;4.15;;;2.00;;
58928;SDS011;44713;53.378;10.022;2023-04-03T02:54:07;4.35;;;2.10;;
58928;SDS011;44713;53.378;10.022;2023-04-03T02:56:35;8.25;;;2.28;;
58928;SDS011;44713;53.378;10.022;2023-04-03T02:59:00;7.57;;;2.10;;
58928;SDS011;44713;53.378;10.022;2023-04-03T03:01:27;7.85;;;2.55;;
58928;SDS011;44713;53.378;10.022;2023-04-03T03:03:56;8.88;;;2.25;;
58928;SDS011;44713;53.378;10.022;2023-04-03T03:06:22;7.72;;;1.92;;
58928;SDS011;44713;53.378;10.022;2023-04-03T03:08:48;5.72;;;1.90;;
58928;SDS011;44713;53.378;10.022;2023-04-03T03:11:13;8.70;;;2.70;;
58928;SDS011;44713;53.378;10.022;2023-04-03T03:13:39;9.63;;;2.00;;
58928;SDS011;44713;53.378;10.022;2023-04-03T03:16:04;6.78;;;2.33;;
58928;SDS011;44713;53.378;10.022;2023-04-03T03:18:31;7.65;;;2.55;;
58928;SDS011;44713;53.378;10.022;2023-04-03T03:20:57;4.50;;;1.90;;
58928;SDS011;44713;53.378;10.022;2023-04-03T03:23:24;4.68;;;1.73;;
58928;SDS011;44713;53.378;10.022;2023-04-03T03:25:55;4.97;;;2.33;;
58928;SDS011;44713;53.378;10.022;2023-04-03T03:28:21;12.10;;;2.38;;
58928;SDS011;44713;53.378;10.022;2023-04-03T03:30:48;6.65;;;1.70;;
58928;SDS011;44713;53.378;10.022;2023-04-03T03:33:13;5.38;;;1.65;;
58928;SDS011;44713;53.378;10.022;2023-04-03T03:35:39;12.23;;;2.50;;
58928;SDS011;44713;53.378;10.022;2023-04-03T03:38:05;4.35;;;2.10;;
58928;SDS011;44713;53.378;10.022;2023-04-03T03:40:31;6.72;;;2.53;;
58928;SDS011;44713;53.378;10.022;2023-04-03T03:42:57;8.00;;;2.45;;
58928;SDS011;44713;53.378;10.022;2023-04-03T03:45:22;10.00;;;2.22;;
58928;SDS011;44713;53.378;10.022;2023-04-03T03:47:48;5.10;;;2.20;;
58928;SDS011;44713;53.378;10.022;2023-04-03T03:50:14;7.78;;;1.90;;
58928;SDS011;44713;53.378;10.022;2023-04-03T03:52:39;7.57;;;2.05;;
58928;SDS011;44713;53.378;10.022;2023-04-03T03:55:05;7.07;;;2.50;;
58928;SDS011;44713;53.378;10.022;2023-04-03T03:57:33;7.57;;;2.13;;
58928;SDS011;44713;53.378;10.022;2023-04-03T03:59:58;5.60;;;2.05;;
58928;SDS011;44713;53.378;10.022;2023-04-03T04:02:24;9.68;;;2.53;;
58928;SDS011;44713;53.378;10.022;2023-04-03T04:04:51;4.30;;;2.10;;
58928;SDS011;44713;53.378;10.022;2023-04-03T04:07:17;5.75;;;2.58;;
58928;SDS011;44713;53.378;10.022;2023-04-03T04:09:43;5.80;;;2.00;;
58928;SDS011;44713;53.378;10.022;2023-04-03T04:12:08;4.75;;;1.88;;
58928;SDS011;44713;53.378;10.022;2023-04-03T04:14:35;6.90;;;2.00;;
58928;SDS011;44713;53.378;10.022;2023-04-03T04:17:00;7.50;;;2.40;;
58928;SDS011;44713;53.378;10.022;2023-04-03T04:19:27;9.73;;;2.70;;
58928;SDS011;44713;53.378;10.022;2023-04-03T04:21:53;6.75;;;2.35;;
58928;SDS011;44713;53.378;10.022;2023-04-03T04:24:19;8.02;;;2.28;;
58928;SDS011;44713;53.378;10.022;2023-04-03T04:26:46;6.40;;;2.50;;
58928;SDS011;44713;53.378;10.022;2023-04-03T04:29:14;6.28;;;2.30;;
58928;SDS011;44713;53.378;10.022;2023-04-03T04:31:39;7.32;;;2.40;;
58928;SDS011;44713;53.378;10.022;2023-04-03T04:34:06;5.65;;;2.20;;
58928;SDS011;44713;53.378;10.022;2023-04-03T04:36:32;5.95;;;2.55;;
58928;SDS011;44713;53.378;10.022;2023-04-03T04:38:57;7.60;;;2.45;;
58928;SDS011;44713;53.378;10.022;2023-04-03T04:41:25;6.70;;;2.30;;
58928;SDS011;44713;53.378;10.022;2023-04-03T04:43:52;6.93;;;1.92;;
58928;SDS011;44713;53.378;10.022;2023-04-03T04:46:17;8.27;;;3.00;;
58928;SDS011;44713;53.378;10.022;2023-04-03T04:48:48;7.40;;;2.75;;
58928;SDS011;44713;53.378;10.022;2023-04-03T04:51:15;9.35;;;2.88;;
58928;SDS011;44713;53.378;10.022;2023-04-03T04:53:41;8.32;;;3.30;;
58928;SDS011;44713;53.378;10.022;2023-04-03T04:56:10;7.63;;;2.65;;
58928;SDS011;44713;53.378;10.022;2023-04-03T04:58:37;4.90;;;2.67;;
58928;SDS011;44713;53.378;10.022;2023-04-03T05:01:03;11.07;;;3.15;;
58928;SDS011;44713;53.378;10.022;2023-04-03T05:06:03;9.85;;;2.88;;
58928;SDS011;44713;53.378;10.022;2023-04-03T05:08:31;8.98;;;2.92;;
58928;SDS011;44713;53.378;10.022;2023-04-03T05:10:56;7.18;;;2.78;;
58928;SDS011;44713;53.378;10.022;2023-04-03T05:13:24;6.75;;;3.05;;
58928;SDS011;44713;53.378;10.022;2023-04-03T05:15:49;8.15;;;3.10;;
58928;SDS011;44713;53.378;10.022;2023-04-03T05:18:15;6.28;;;2.92;;
58928;SDS011;44713;53.378;10.022;2023-04-03T05:20:41;7.65;;;2.67;;
58928;SDS011;44713;53.378;10.022;2023-04-03T05:23:09;7.28;;;3.10;;
58928;SDS011;44713;53.378;10.022;2023-04-03T05:25:37;7.75;;;3.40;;
58928;SDS011;44713;53.378;10.022;2023-04-03T05:28:04;9.63;;;3.45;;
58928;SDS011;44713;53.378;10.022;2023-04-03T05:30:30;9.93;;;3.75;;
58928;SDS011;44713;53.378;10.022;2023-04-03T05:32:55;10.27;;;3.88;;
58928;SDS011;44713;53.378;10.022;2023-04-03T05:35:31;7.72;;;3.80;;
58928;SDS011;44713;53.378;10.022;2023-04-03T05:37:59;11.38;;;4.50;;
58928;SDS011;44713;53.378;10.022;2023-04-03T05:40:25;6.38;;;3.65;;
58928;SDS011;44713;53.378;10.022;2023-04-03T05:42:53;10.80;;;4.60;;
58928;SDS011;44713;53.378;10.022;2023-04-03T05:45:20;6.65;;;3.85;;
58928;SDS011;44713;53.378;10.022;2023-04-03T05:47:46;9.25;;;4.10;;
58928;SDS011;44713;53.378;10.022;2023-04-03T05:50:13;11.18;;;4.45;;
58928;SDS011;44713;53.378;10.022;2023-04-03T05:52:40;11.10;;;3.72;;
58928;SDS011;44713;53.378;10.022;2023-04-03T05:55:09;8.57;;;3.95;;
58928;SDS011;44713;53.378;10.022;2023-04-03T05:57:35;10.18;;;3.90;;
58928;SDS011;44713;53.378;10.022;2023-04-03T06:00:01;9.38;;;4.47;;
58928;SDS011;44713;53.378;10.022;2023-04-03T06:02:28;12.20;;;3.97;;
58928;SDS011;44713;53.378;10.022;2023-04-03T06:04:55;11.80;;;4.32;;
58928;SDS011;44713;53.378;10.022;2023-04-03T06:07:22;10.95;;;4.05;;
58928;SDS011;44713;53.378;10.022;2023-04-03T06:09:50;7.25;;;3.78;;
58928;SDS011;44713;53.378;10.022;2023-04-03T06:12:18;9.40;;;3.53;;
58928;SDS011;44713;53.378;10.022;2023-04-03T06:14:44;10.25;;;3.97;;
58928;SDS011;44713;53.378;10.022;2023-04-03T06:17:12;11.85;;;4.65;;
58928;SDS011;44713;53.378;10.022;2023-04-03T06:19:38;8.68;;;3.90;;
58928;SDS011;44713;53.378;10.022;2023-04-03T06:22:04;12.63;;;4.53;;
58928;SDS011;44713;53.378;10.022;2023-04-03T06:24:30;12.30;;;4.68;;
58928;SDS011;44713;53.378;10.022;2023-04-03T06:26:56;11.90;;;3.95;;
58928;SDS011;44713;53.378;10.022;2023-04-03T06:29:22;10.32;;;4.22;;
58928;SDS011;44713;53.378;10.022;2023-04-03T06:31:49;10.88;;;4.55;;
58928;SDS011;44713;53.378;10.022;2023-04-03T06:34:15;9.68;;;3.67;;
58928;SDS011;44713;53.378;10.022;2023-04-03T06:36:41;8.43;;;3.17;;
58928;SDS011;44713;53.378;10.022;2023-04-03T06:39:08;12.23;;;3.88;;
58928;SDS011;44713;53.378;10.022;2023-04-03T06:41:37;11.60;;;3.63;;
58928;SDS011;44713;53.378;10.022;2023-04-03T06:44:03;10.13;;;3.60;;
58928;SDS011;44713;53.378;10.022;2023-04-03T06:46:28;11.75;;;4.00;;
58928;SDS011;44713;53.378;10.022;2023-04-03T06:48:54;6.65;;;3.72;;
58928;SDS011;44713;53.378;10.022;2023-04-03T06:51:26;8.82;;;3.75;;
58928;SDS011;44713;53.378;10.022;2023-04-03T06:53:54;11.65;;;3.03;;
58928;SDS011;44713;53.378;10.022;2023-04-03T06:56:20;5.60;;;2.97;;
58928;SDS011;44713;53.378;10.022;2023-04-03T06:58:47;5.88;;;2.10;;
58928;SDS011;44713;53.378;10.022;2023-04-03T07:01:14;7.93;;;3.15;;
58928;SDS011;44713;53.378;10.022;2023-04-03T07:03:41;7.80;;;2.60;;
58928;SDS011;44713;53.378;10.022;2023-04-03T07:06:07;8.48;;;2.50;;
58928;SDS011;44713;53.378;10.022;2023-04-03T07:08:35;8.77;;;2.38;;
58928;SDS011;44713;53.378;10.022;2023-04-03T07:11:01;4.43;;;2.05;;
58928;SDS011;44713;53.378;10.022;2023-04-03T07:13:27;5.90;;;2.13;;
58928;SDS011;44713;53.378;10.022;2023-04-03T07:15:52;7.18;;;2.20;;
58928;SDS011;44713;53.378;10.022;2023-04-03T07:18:18;7.10;;;2.25;;
58928;SDS011;44713;53.378;10.022;2023-04-03T07:20:44;9.43;;;2.47;;
58928;SDS011;44713;53.378;10.022;2023-04-03T07:23:09;5.38;;;1.90;;
58928;SDS011;44713;53.378;10.022;2023-04-03T07:25:35;10.05;;;1.92;;
58928;SDS011;44713;53.378;10.022;2023-04-03T07:28:01;5.25;;;1.75;;
58928;SDS011;44713;53.378;10.022;2023-04-03T07:30:27;5.75;;;1.98;;
58928;SDS011;44713;53.378;10.022;2023-04-03T07:32:52;7.18;;;1.63;;
58928;SDS011;44713;53.378;10.022;2023-04-03T07:35:17;4.93;;;1.30;;
58928;SDS011;44713;53.378;10.022;2023-04-03T07:37:43;6.32;;;1.67;;
58928;SDS011;44713;53.378;10.022;2023-04-03T07:40:08;3.47;;;1.15;;
58928;SDS011;44713;53.378;10.022;2023-04-03T07:42:34;6.60;;;1.27;;
58928;SDS011;44713;53.378;10.022;2023-04-03T07:45:01;7.13;;;1.55;;
58928;SDS011;44713;53.378;10.022;2023-04-03T07:47:28;7.22;;;1.73;;
58928;SDS011;44713;53.378;10.022;2023-04-03T07:49:53;4.22;;;1.10;;
58928;SDS011;44713;53.378;10.022;2023-04-03T07:52:19;6.50;;;1.50;;
58928;SDS011;44713;53.378;10.022;2023-04-03T07:54:44;8.15;;;1.40;;
58928;SDS011;44713;53.378;10.022;2023-04-03T07:57:09;5.93;;;1.30;;
58928;SDS011;44713;53.378;10.022;2023-04-03T07:59:35;3.70;;;1.08;;
58928;SDS011;44713;53.378;10.022;2023-04-03T08:02:00;4.20;;;1.25;;
58928;SDS011;44713;53.378;10.022;2023-04-03T08:04:26;6.00;;;1.40;;
58928;SDS011;44713;53.378;10.022;2023-04-03T08:06:52;2.47;;;1.10;;
58928;SDS011;44713;53.378;10.022;2023-04-03T08:09:17;5.75;;;1.63;;
58928;SDS011;44713;53.378;10.022;2023-04-03T08:11:44;6.90;;;1.23;;
58928;SDS011;44713;53.378;10.022;2023-04-03T08:14:10;3.05;;;0.98;;
58928;SDS011;44713;53.378;10.022;2023-04-03T08:16:41;2.55;;;0.90;;
58928;SDS011;44713;53.378;10.022;2023-04-03T08:19:08;3.30;;;0.90;;
58928;SDS011;44713;53.378;10.022;2023-04-03T08:21:34;3.45;;;0.70;;
58928;SDS011;44713;53.378;10.022;2023-04-03T08:23:59;4.18;;;1.02;;
58928;SDS011;44713;53.378;10.022;2023-04-03T08:26:24;5.75;;;0.98;;
58928;SDS011;44713;53.378;10.022;2023-04-03T08:28:51;2.58;;;1.10;;
58928;SDS011;44713;53.378;10.022;2023-04-03T08:31:18;3.97;;;0.90;;
58928;SDS011;44713;53.378;10.022;2023-04-03T08:33:45;3.65;;;1.08;;
58928;SDS011;44713;53.378;10.022;2023-04-03T08:36:27;6.10;;;1.20;;
58928;SDS011;44713;53.378;10.022;2023-04-03T08:38:55;3.75;;;1.10;;
58928;SDS011;44713;53.378;10.022;2023-04-03T08:41:27;4.22;;;0.88;;
58928;SDS011;44713;53.378;10.022;2023-04-03T08:44:07;5.13;;;1.00;;
58928;SDS011;44713;53.378;10.022;2023-04-03T08:55:01;3.55;;;1.00;;
58928;SDS011;44713;53.378;10.022;2023-04-03T08:59:57;4.72;;;1.00;;
58928;SDS011;44713;53.378;10.022;2023-04-03T09:02:27;3.90;;;1.00;;
58928;SDS011;44713;53.378;10.022;2023-04-03T09:04:59;3.97;;;0.80;;
58928;SDS011;44713;53.378;10.022;2023-04-03T09:07:33;2.78;;;1.10;;
58928;SDS011;44713;53.378;10.022;2023-04-03T09:10:04;3.95;;;0.75;;
58928;SDS011;44713;53.378;10.022;2023-04-03T09:12:34;3.55;;;0.90;;
58928;SDS011;44713;53.378;10.022;2023-04-03T09:15:22;3.17;;;0.60;;
58928;SDS011;44713;53.378;10.022;2023-04-03T09:20:46;3.88;;;0.90;;
58928;SDS011;44713;53.378;10.022;2023-04-03T09:23:24;2.95;;;0.90;;
58928;SDS011;44713;53.378;10.022;2023-04-03T09:26:13;4.03;;;0.82;;
58928;SDS011;44713;53.378;10.022;2023-04-03T09:28:42;6.55;;;0.88;;
58928;SDS011;44713;53.378;10.022;2023-04-03T09:31:19;5.97;;;0.80;;
58928;SDS011;44713;53.378;10.022;2023-04-03T09:33:51;4.13;;;0.90;;
58928;SDS011;44713;53.378;10.022;2023-04-03T09:36:37;3.00;;;0.60;;
58928;SDS011;44713;53.378;10.022;2023-04-03T09:39:10;2.83;;;0.65;;
58928;SDS011;44713;53.378;10.022;2023-04-03T09:41:37;2.55;;;0.60;;
58928;SDS011;44713;53.378;10.022;2023-04-03T09:44:02;4.07;;;0.70;;
58928;SDS011;44713;53.378;10.022;2023-04-03T09:46:42;3.88;;;0.50;;
58928;SDS011;44713;53.378;10.022;2023-04-03T09:49:09;1.92;;;0.80;;
58928;SDS011;44713;53.378;10.022;2023-04-03T09:51:36;2.10;;;0.70;;
58928;SDS011;44713;53.378;10.022;2023-04-03T09:54:23;3.40;;;0.77;;
58928;SDS011;44713;53.378;10.022;2023-04-03T09:57:03;3.35;;;0.77;;
58928;SDS011;44713;53.378;10.022;2023-04-03T09:59:33;4.22;;;0.93;;
58928;SDS011;44713;53.378;10.022;2023-04-03T10:04:40;1.38;;;0.52;;
58928;SDS011;44713;53.378;10.022;2023-04-03T10:07:26;1.40;;;0.50;;
58928;SDS011;44713;53.378;10.022;2023-04-03T10:10:00;1.05;;;0.55;;
58928;SDS011;44713;53.378;10.022;2023-04-03T10:15:12;2.78;;;0.70;;
58928;SDS011;44713;53.378;10.022;2023-04-03T10:20:36;2.55;;;0.68;;
58928;SDS011;44713;53.378;10.022;2023-04-03T10:31:33;2.17;;;0.65;;
58928;SDS011;44713;53.378;10.022;2023-04-03T10:34:06;1.15;;;0.68;;
58928;SDS011;44713;53.378;10.022;2023-04-03T10:39:22;2.85;;;0.70;;
58928;SDS011;44713;53.378;10.022;2023-04-03T10:47:32;0.73;;;0.57;;
58928;SDS011;44713;53.378;10.022;2023-04-03T10:50:49;3.85;;;0.70;;
58928;SDS011;44713;53.378;10.022;2023-04-03T10:58:47;4.28;;;0.50;;
58928;SDS011;44713;53.378;10.022;2023-04-03T11:01:19;3.28;;;0.88;;
58928;SDS011;44713;53.378;10.022;2023-04-03T11:03:49;3.42;;;0.90;;
58928;SDS011;44713;53.378;10.022;2023-04-03T11:06:18;1.10;;;0.60;;
58928;SDS011;44713;53.378;10.022;2023-04-03T11:09:02;1.33;;;0.75;;
58928;SDS011;44713;53.378;10.022;2023-04-03T11:11:33;2.15;;;0.70;;
58928;SDS011;44713;53.378;10.022;2023-04-03T11:19:52;5.18;;;0.65;;
58928;SDS011;44713;53.378;10.022;2023-04-03T11:22:30;1.23;;;0.70;;
58928;SDS011;44713;53.378;10.022;2023-04-03T11:25:09;1.73;;;0.50;;
58928;SDS011;44713;53.378;10.022;2023-04-03T11:27:54;1.55;;;0.60;;
58928;SDS011;44713;53.378;10.022;2023-04-03T11:30:44;3.72;;;1.00;;
58928;SDS011;44713;53.378;10.022;2023-04-03T11:36:10;2.28;;;0.80;;
58928;SDS011;44713;53.378;10.022;2023-04-03T11:38:43;1.65;;;0.80;;
58928;SDS011;44713;53.378;10.022;2023-04-03T11:41:10;2.20;;;0.80;;
58928;SDS011;44713;53.378;10.022;2023-04-03T11:43:42;4.43;;;1.08;;
58928;SDS011;44713;53.378;10.022;2023-04-03T11:46:22;3.97;;;0.90;;
58928;SDS011;44713;53.378;10.022;2023-04-03T11:48:48;2.25;;;0.80;;
58928;SDS011;44713;53.378;10.022;2023-04-03T11:53:45;1.85;;;0.60;;
58928;SDS011;44713;53.378;10.022;2023-04-03T12:04:10;3.33;;;0.70;;
58928;SDS011;44713;53.378;10.022;2023-04-03T12:09:21;3.40;;;0.70;;
58928;SDS011;44713;53.378;10.022;2023-04-03T12:11:49;3.92;;;0.80;;
58928;SDS011;44713;53.378;10.022;2023-04-03T12:14:16;3.25;;;0.70;;
58928;SDS011;44713;53.378;10.022;2023-04-03T12:16:45;3.53;;;0.50;;
58928;SDS011;44713;53.378;10.022;2023-04-03T12:26:48;2.67;;;0.68;;
58928;SDS011;44713;53.378;10.022;2023-04-03T12:29:34;2.00;;;0.70;;
58928;SDS011;44713;53.378;10.022;2023-04-03T12:35:17;4.00;;;0.73;;
58928;SDS011;44713;53.378;10.022;2023-04-03T12:43:29;1.27;;;0.70;;
58928;SDS011;44713;53.378;10.022;2023-04-03T12:46:26;2.10;;;0.77;;
58928;SDS011;44713;53.378;10.022;2023-04-03T12:48:59;1.77;;;0.67;;
58928;SDS011;44713;53.378;10.022;2023-04-03T12:51:37;1.67;;;0.63;;
58928;SDS011;44713;53.378;10.022;2023-04-03T12:59:42;2.13;;;0.80;;
58928;SDS011;44713;53.378;10.022;2023-04-03T13:02:20;2.15;;;0.60;;
58928;SDS011;44713;53.378;10.022;2023-04-03T13:04:50;3.05;;;0.80;;
58928;SDS011;44713;53.378;10.022;2023-04-03T13:07:21;1.98;;;0.70;;
58928;SDS011;44713;53.378;10.022;2023-04-03T13:09:59;2.50;;;0.70;;
58928;SDS011;44713;53.378;10.022;2023-04-03T13:12:26;3.90;;;0.95;;
58928;SDS011;44713;53.378;10.022;2023-04-03T13:14:56;1.48;;;0.60;;
58928;SDS011;44713;53.378;10.022;2023-04-03T13:17:25;3.60;;;0.75;;
58928;SDS011;44713;53.378;10.022;2023-04-03T13:19:51;3.53;;;0.75;;
58928;SDS011;44713;53.378;10.022;2023-04-03T13:24:58;1.77;;;0.80;;
58928;SDS011;44713;53.378;10.022;2023-04-03T13:27:26;4.55;;;0.95;;
58928;SDS011;44713;53.378;10.022;2023-04-03T13:29:52;4.70;;;0.93;;
58928;SDS011;44713;53.378;10.022;2023-04-03T13:32:22;3.58;;;0.73;;
58928;SDS011;44713;53.378;10.022;2023-04-03T13:34:49;1.88;;;0.80;;
58928;SDS011;44713;53.378;10.022;2023-04-03T13:37:26;2.42;;;0.60;;
58928;SDS011;44713;53.378;10.022;2023-04-03T13:40:04;3.90;;;0.90;;
58928;SDS011;44713;53.378;10.022;2023-04-03T13:42:40;2.50;;;0.75;;
58928;SDS011;44713;53.378;10.022;2023-04-03T13:45:17;4.50;;;0.90;;
58928;SDS011;44713;53.378;10.022;2023-04-03T13:47:49;2.90;;;0.70;;
58928;SDS011;44713;53.378;10.022;2023-04-03T13:50:23;2.70;;;0.60;;
58928;SDS011;44713;53.378;10.022;2023-04-03T13:52:52;4.43;;;0.90;;
58928;SDS011;44713;53.378;10.022;2023-04-03T13:55:24;1.75;;;0.73;;
58928;SDS011;44713;53.378;10.022;2023-04-03T13:58:02;3.05;;;0.80;;
58928;SDS011;44713;53.378;10.022;2023-04-03T14:05:50;1.92;;;0.85;;
58928;SDS011;44713;53.378;10.022;2023-04-03T14:08:16;2.90;;;0.60;;
58928;SDS011;44713;53.378;10.022;2023-04-03T14:10:43;1.63;;;0.55;;
58928;SDS011;44713;53.378;10.022;2023-04-03T14:13:11;3.88;;;0.90;;
58928;SDS011;44713;53.378;10.022;2023-04-03T14:15:38;2.10;;;0.68;;
58928;SDS011;44713;53.378;10.022;2023-04-03T14:18:03;2.92;;;0.70;;
58928;SDS011;44713;53.378;10.022;2023-04-03T14:20:29;2.67;;;0.70;;
58928;SDS011;44713;53.378;10.022;2023-04-03T14:22:55;1.83;;;0.60;;
58928;SDS011;44713;53.378;10.022;2023-04-03T14:25:21;2.15;;;0.65;;
58928;SDS011;44713;53.378;10.022;2023-04-03T14:27:51;2.25;;;0.70;;
58928;SDS011;44713;53.378;10.022;2023-04-03T14:30:23;3.40;;;0.95;;
58928;SDS011;44713;53.378;10.022;2023-04-03T14:32:51;1.40;;;0.65;;
58928;SDS011;44713;53.378;10.022;2023-04-03T14:35:17;1.70;;;0.70;;
58928;SDS011;44713;53.378;10.022;2023-04-03T14:37:44;3.33;;;0.57;;
58928;SDS011;44713;53.378;10.022;2023-04-03T14:40:12;2.97;;;0.68;;
58928;SDS011;44713;53.378;10.022;2023-04-03T14:42:40;1.92;;;0.60;;
58928;SDS011;44713;53.378;10.022;2023-04-03T14:45:07;2.85;;;0.80;;
58928;SDS011;44713;53.378;10.022;2023-04-03T14:47:36;2.60;;;0.80;;
58928;SDS011;44713;53.378;10.022;2023-04-03T14:50:06;1.55;;;0.57;;
58928;SDS011;44713;53.378;10.022;2023-04-03T14:52:34;1.38;;;0.70;;
58928;SDS011;44713;53.378;10.022;2023-04-03T14:55:01;1.63;;;0.75;;
58928;SDS011;44713;53.378;10.022;2023-04-03T14:57:28;1.25;;;0.60;;
58928;SDS011;44713;53.378;10.022;2023-04-03T14:59:55;2.35;;;0.60;;
58928;SDS011;44713;53.378;10.022;2023-04-03T15:02:30;2.38;;;0.75;;
58928;SDS011;44713;53.378;10.022;2023-04-03T15:05:04;4.03;;;0.87;;
58928;SDS011;44713;53.378;10.022;2023-04-03T15:07:33;1.30;;;0.60;;
58928;SDS011;44713;53.378;10.022;2023-04-03T15:10:46;2.17;;;0.82;;
58928;SDS011;44713;53.378;10.022;2023-04-03T15:12:48;2.40;;;0.73;;
58928;SDS011;44713;53.378;10.022;2023-04-03T15:15:15;2.65;;;0.77;;
58928;SDS011;44713;53.378;10.022;2023-04-03T15:17:42;2.40;;;0.73;;
58928;SDS011;44713;53.378;10.022;2023-04-03T15:20:13;3.33;;;0.60;;
58928;SDS011;44713;53.378;10.022;2023-04-03T15:22:40;2.60;;;0.60;;
58928;SDS011;44713;53.378;10.022;2023-04-03T15:25:06;2.50;;;0.70;;
58928;SDS011;44713;53.378;10.022;2023-04-03T15:27:32;2.17;;;0.70;;
58928;SDS011;44713;53.378;10.022;2023-04-03T15:29:57;1.42;;;0.68;;
58928;SDS011;44713;53.378;10.022;2023-04-03T15:32:23;2.25;;;0.70;;
58928;SDS011;44713;53.378;10.022;2023-04-03T15:34:48;2.33;;;0.80;;
58928;SDS011;44713;53.378;10.022;2023-04-03T15:37:14;2.67;;;0.85;;
58928;SDS011;44713;53.378;10.022;2023-04-03T15:39:39;2.45;;;0.90;;
58928;SDS011;44713;53.378;10.022;2023-04-03T15:42:04;3.38;;;0.80;;
58928;SDS011;44713;53.378;10.022;2023-04-03T15:44:33;1.85;;;0.65;;
58928;SDS011;44713;53.378;10.022;2023-04-03T15:46:59;4.22;;;0.98;;
58928;SDS011;44713;53.378;10.022;2023-04-03T15:49:25;2.30;;;0.73;;
58928;SDS011;44713;53.378;10.022;2023-04-03T15:51:52;1.80;;;0.73;;
58928;SDS011;44713;53.378;10.022;2023-04-03T15:54:17;2.58;;;0.60;;
58928;SDS011;44713;53.378;10.022;2023-04-03T15:56:43;2.17;;;0.80;;
58928;SDS011;44713;53.378;10.022;2023-04-03T15:59:08;3.90;;;0.80;;
58928;SDS011;44713;53.378;10.022;2023-04-03T16:01:34;3.03;;;0.50;;
58928;SDS011;44713;53.378;10.022;2023-04-03T16:03:59;1.52;;;0.70;;
58928;SDS011;44713;53.378;10.022;2023-04-03T16:06:25;2.00;;;0.70;;
58928;SDS011;44713;53.378;10.022;2023-04-03T16:08:54;2.15;;;0.70;;
58928;SDS011;44713;53.378;10.022;2023-04-03T16:11:22;2.70;;;1.00;;
58928;SDS011;44713;53.378;10.022;2023-04-03T16:13:49;2.58;;;0.90;;
58928;SDS011;44713;53.378;10.022;2023-04-03T16:16:14;2.13;;;0.93;;
58928;SDS011;44713;53.378;10.022;2023-04-03T16:18:40;3.15;;;0.82;;
58928;SDS011;44713;53.378;10.022;2023-04-03T16:21:06;2.20;;;0.90;;
58928;SDS011;44713;53.378;10.022;2023-04-03T16:23:33;3.67;;;0.88;;
58928;SDS011;44713;53.378;10.022;2023-04-03T16:25:59;2.85;;;0.90;;
58928;SDS011;44713;53.378;10.022;2023-04-03T16:28:24;4.57;;;0.70;;
58928;SDS011;44713;53.378;10.022;2023-04-03T16:30:50;2.40;;;0.70;;
58928;SDS011;44713;53.378;10.022;2023-04-03T16:33:16;4.10;;;1.15;;
58928;SDS011;44713;53.378;10.022;2023-04-03T16:35:41;2.53;;;0.80;;